Time;durP1;ratioP1;P1;durP2;ratioP2;P2;SDS_P1;SDS_P2;PMS_P1;PMS_P2;Temp;Humidity;BMP_temperature;BMP_pressure;BME280_temperature;BME280_humidity;BME280_pressure;Samples;Min_cycle;Max_cycle;Signal;HPM_P1;HPM_P2
2021/10/28 00:14:22;;;;;;;0.57;0.57;;;6.60;99.90;;;;;;5032150;28;20700;-73
2021/10/28 00:16:50;;;;;;;0.40;0.40;;;6.60;99.90;;;;;;5031990;28;20370;-73
2021/10/28 00:19:16;;;;;;;0.30;0.30;;;6.40;99.90;;;;;;5032013;28;20033;-73
2021/10/28 00:21:43;;;;;;;0.30;0.30;;;6.50;99.90;;;;;;5032014;28;20037;-73
2021/10/28 00:24:11;;;;;;;0.30;0.30;;;6.60;99.90;;;;;;5031891;28;20030;-73
2021/10/28 00:26:44;;;;;;;0.30;0.30;;;6.70;99.90;;;;;;5031775;28;20040;-73
2021/10/28 00:29:14;;;;;;;0.30;0.30;;;6.70;99.90;;;;;;5031877;28;20028;-73
2021/10/28 00:31:41;;;;;;;0.73;0.73;;;6.60;99.90;;;;;;5031827;28;20070;-73
2021/10/28 00:34:09;;;;;;;0.30;0.30;;;6.60;99.90;;;;;;5014083;28;20033;-73
2021/10/28 00:36:36;;;;;;;0.30;0.30;;;6.40;99.90;;;;;;5031857;28;20477;-73
2021/10/28 00:39:05;;;;;;;0.30;0.30;;;6.40;99.90;;;;;;5031876;28;20064;-73
2021/10/28 00:41:31;;;;;;;0.30;0.30;;;6.50;99.90;;;;;;5030451;28;20029;-73
2021/10/28 00:44:00;;;;;;;0.30;0.30;;;6.60;99.90;;;;;;5030485;28;20025;-73
2021/10/28 00:46:31;;;;;;;0.65;0.65;;;6.70;99.90;;;;;;5030219;28;20037;-73
2021/10/28 00:48:59;;;;;;;0.60;0.60;;;6.90;99.90;;;;;;5031619;28;20036;-73
2021/10/28 00:51:28;;;;;;;0.50;0.50;;;7.00;99.90;;;;;;5031665;28;20033;-73
2021/10/28 00:53:57;;;;;;;0.30;0.30;;;6.90;99.90;;;;;;5031671;28;20030;-73
2021/10/28 00:56:26;;;;;;;0.47;0.47;;;7.00;99.90;;;;;;5031450;28;20084;-73
2021/10/28 00:58:52;;;;;;;0.22;0.22;;;6.90;99.90;;;;;;5031737;28;20366;-73
2021/10/28 01:01:18;;;;;;;0.30;0.30;;;6.90;99.90;;;;;;5030360;28;20057;-73
2021/10/28 01:03:45;;;;;;;0.20;0.20;;;6.80;99.90;;;;;;5031514;28;20049;-73
2021/10/28 01:06:12;;;;;;;0.90;0.90;;;6.80;99.90;;;;;;5035036;28;20022;-73
2021/10/28 01:08:42;;;;;;;0.30;0.30;;;6.70;99.90;;;;;;5035456;28;20014;-73
2021/10/28 01:11:10;;;;;;;0.47;0.47;;;6.70;99.90;;;;;;5035381;28;20055;-73
2021/10/28 01:13:37;;;;;;;3.72;2.25;;;6.70;99.90;;;;;;5035311;28;20033;-73
2021/10/28 01:16:04;;;;;;;0.30;0.30;;;6.40;99.90;;;;;;5035278;28;20114;-73
2021/10/28 01:18:30;;;;;;;0.65;0.65;;;6.40;99.90;;;;;;5035316;28;20040;-73
2021/10/28 01:20:57;;;;;;;0.50;0.50;;;6.30;99.90;;;;;;5035301;28;20477;-73
2021/10/28 01:23:24;;;;;;;0.30;0.30;;;6.10;99.90;;;;;;5035156;28;20079;-73
2021/10/28 01:25:55;;;;;;;0.35;0.35;;;6.30;99.90;;;;;;5035119;28;20497;-73
2021/10/28 01:28:23;;;;;;;0.70;0.70;;;6.30;99.90;;;;;;5035195;28;20018;-73
2021/10/28 01:31:00;;;;;;;1.27;1.17;;;6.20;99.90;;;;;;5033938;28;20072;-73
2021/10/28 01:33:27;;;;;;;0.47;0.47;;;6.20;99.90;;;;;;5035207;28;20384;-73
2021/10/28 01:35:54;;;;;;;0.30;0.30;;;6.30;99.90;;;;;;5034829;28;20026;-73
2021/10/28 01:38:20;;;;;;;0.40;0.40;;;6.20;99.90;;;;;;5034913;28;20021;-73
2021/10/28 01:40:57;;;;;;;0.40;0.40;;;6.20;99.90;;;;;;5034965;28;20088;-73
2021/10/28 01:43:24;;;;;;;0.28;0.28;;;6.00;99.90;;;;;;5033689;28;20519;-73
2021/10/28 01:45:50;;;;;;;0.40;0.40;;;5.90;99.90;;;;;;5034834;28;20458;-73
2021/10/28 01:48:18;;;;;;;0.40;0.40;;;5.80;99.90;;;;;;5034645;28;20021;-73
2021/10/28 01:50:44;;;;;;;0.82;0.82;;;5.60;99.90;;;;;;5034698;28;20028;-73
2021/10/28 01:53:11;;;;;;;0.30;0.30;;;5.50;99.90;;;;;;5033573;28;20026;-73
2021/10/28 01:55:38;;;;;;;0.40;0.40;;;5.70;99.90;;;;;;5034521;28;20052;-73
2021/10/28 01:58:04;;;;;;;0.40;0.40;;;5.30;99.90;;;;;;5034647;28;20108;-73
2021/10/28 02:00:30;;;;;;;0.30;0.30;;;5.20;99.90;;;;;;5034561;28;20490;-73
2021/10/28 02:02:55;;;;;;;0.88;0.88;;;5.10;99.90;;;;;;5034470;28;20550;-73
2021/10/28 02:05:23;;;;;;;0.30;0.30;;;5.00;99.90;;;;;;5034563;28;20033;-73
2021/10/28 02:07:50;;;;;;;0.63;0.63;;;4.80;99.90;;;;;;5016714;28;20118;-73
2021/10/28 02:10:18;;;;;;;0.75;0.75;;;4.50;99.90;;;;;;5034369;28;20053;-73
2021/10/28 02:12:46;;;;;;;0.43;0.43;;;4.60;99.90;;;;;;5034254;28;20109;-73
2021/10/28 02:15:14;;;;;;;0.35;0.35;;;4.70;99.90;;;;;;5033735;28;20105;-73
2021/10/28 02:17:41;;;;;;;0.43;0.43;;;4.70;99.90;;;;;;5034238;28;20014;-73
2021/10/28 02:20:11;;;;;;;0.35;0.35;;;4.80;99.90;;;;;;5034169;28;20338;-73
2021/10/28 02:22:38;;;;;;;0.32;0.32;;;4.80;99.90;;;;;;5034154;28;20025;-73
2021/10/28 02:25:05;;;;;;;0.60;0.60;;;4.90;99.90;;;;;;5034004;28;20025;-73
2021/10/28 02:27:31;;;;;;;1.85;0.90;;;5.00;99.90;;;;;;5033947;28;20056;-73
2021/10/28 02:29:57;;;;;;;0.50;0.50;;;5.00;99.90;;;;;;5033987;28;20045;-73
2021/10/28 02:32:23;;;;;;;0.55;0.55;;;5.00;99.90;;;;;;5034046;28;20025;-73
2021/10/28 02:34:49;;;;;;;0.30;0.30;;;5.00;99.90;;;;;;5033819;28;20029;-73
2021/10/28 02:37:15;;;;;;;0.30;0.30;;;5.10;99.90;;;;;;5032684;28;20032;-73
2021/10/28 02:39:41;;;;;;;0.63;0.63;;;5.10;99.90;;;;;;5032511;28;20155;-73
2021/10/28 02:42:07;;;;;;;1.08;0.98;;;5.10;99.90;;;;;;5032369;28;20120;-73
2021/10/28 02:44:33;;;;;;;0.60;0.60;;;5.10;99.90;;;;;;5033582;28;20032;-73
2021/10/28 02:46:59;;;;;;;0.40;0.40;;;5.10;99.90;;;;;;5033759;28;20497;-73
2021/10/28 02:49:26;;;;;;;0.30;0.30;;;5.20;99.90;;;;;;5032225;28;20114;-73
2021/10/28 02:51:52;;;;;;;0.20;0.20;;;5.20;99.90;;;;;;5034009;28;20033;-73
2021/10/28 02:54:20;;;;;;;3.72;1.95;;;5.40;99.90;;;;;;5032476;28;20030;-73
2021/10/28 02:56:46;;;;;;;0.40;0.40;;;5.40;99.90;;;;;;5033195;28;20049;-73
2021/10/28 02:59:12;;;;;;;3.13;2.90;;;5.20;99.90;;;;;;5033405;28;20104;-73
2021/10/28 03:01:47;;;;;;;1.58;1.05;;;5.00;99.90;;;;;;5033370;28;20108;-73
2021/10/28 03:04:17;;;;;;;2.97;0.68;;;4.90;99.90;;;;;;5033308;28;20561;-73
2021/10/28 03:06:44;;;;;;;1.65;0.50;;;4.80;99.90;;;;;;5033191;28;20354;-73
2021/10/28 03:09:13;;;;;;;0.30;0.30;;;5.00;99.90;;;;;;5033670;28;20013;-73
2021/10/28 03:11:41;;;;;;;0.45;0.45;;;5.10;99.90;;;;;;5033239;28;20377;-73
2021/10/28 03:14:11;;;;;;;0.40;0.40;;;5.30;99.90;;;;;;5031875;28;20052;-73
2021/10/28 03:27:17;;;;;;;1.40;1.33;;;5.20;99.90;;;;;;5032219;28;20022;-73
2021/10/28 03:29:43;;;;;;;0.30;0.30;;;5.30;99.90;;;;;;5031516;28;20556;-73
2021/10/28 03:32:08;;;;;;;1.67;1.58;;;5.30;99.90;;;;;;5032693;28;20501;-73
2021/10/28 03:34:35;;;;;;;0.40;0.40;;;5.20;99.90;;;;;;5032679;28;20025;-73
2021/10/28 03:37:18;;;;;;;0.25;0.25;;;5.10;99.90;;;;;;5032713;28;20021;-73
2021/10/28 03:55:35;;;;;;;1.95;0.73;;;5.00;99.90;;;;;;5032226;28;20029;-73
2021/10/28 04:16:57;;;;;;;0.30;0.30;;;5.00;99.90;;;;;;5032007;28;20033;-73
2021/10/28 04:30:11;;;;;;;0.35;0.35;;;5.10;99.90;;;;;;5030572;28;20474;-73
2021/10/28 04:32:37;;;;;;;0.50;0.50;;;5.20;99.90;;;;;;5030547;28;20033;-73
2021/10/28 04:35:03;;;;;;;0.35;0.35;;;5.10;99.90;;;;;;5030363;28;20029;-73
2021/10/28 04:37:30;;;;;;;0.30;0.30;;;5.20;99.90;;;;;;5031829;28;20055;-73
2021/10/28 04:39:56;;;;;;;0.50;0.50;;;5.10;99.90;;;;;;5031631;28;20025;-73
2021/10/28 04:42:22;;;;;;;2.40;0.57;;;5.30;99.90;;;;;;5030578;28;20101;-73
2021/10/28 04:44:48;;;;;;;0.55;0.55;;;5.40;99.90;;;;;;5031552;28;20017;-73
2021/10/28 04:47:13;;;;;;;0.30;0.30;;;5.20;99.90;;;;;;5031662;28;20022;-73
2021/10/28 04:49:39;;;;;;;17.73;16.17;;;5.00;99.90;;;;;;5030116;28;20041;-73
2021/10/28 04:52:06;;;;;;;0.40;0.40;;;5.00;99.90;;;;;;5030409;28;20056;-73
2021/10/28 04:54:32;;;;;;;0.40;0.40;;;5.20;99.90;;;;;;5031341;28;20446;-73
2021/10/28 04:56:58;;;;;;;0.30;0.30;;;5.10;99.90;;;;;;5031566;28;20592;-73
2021/10/28 04:59:23;;;;;;;0.40;0.40;;;5.10;99.90;;;;;;5031547;28;20021;-73
2021/10/28 05:01:49;;;;;;;0.77;0.77;;;5.20;99.90;;;;;;5031537;28;20525;-73
2021/10/28 05:04:17;;;;;;;0.57;0.57;;;5.00;99.90;;;;;;5030234;28;20401;-73
2021/10/28 05:06:44;;;;;;;0.60;0.60;;;4.90;99.90;;;;;;5031289;28;20071;-73
2021/10/28 05:09:10;;;;;;;0.40;0.40;;;5.00;99.90;;;;;;5031295;28;20045;-73
2021/10/28 05:11:36;;;;;;;0.40;0.40;;;4.90;99.90;;;;;;5031449;28;20013;-73
2021/10/28 05:14:02;;;;;;;0.40;0.40;;;4.90;99.90;;;;;;5030053;28;20148;-73
2021/10/28 05:16:28;;;;;;;0.30;0.30;;;5.00;99.90;;;;;;5031271;28;20033;-73
2021/10/28 05:18:53;;;;;;;1.00;1.00;;;5.00;99.90;;;;;;5031326;28;20029;-73
2021/10/28 05:21:19;;;;;;;1.17;0.88;;;4.80;99.90;;;;;;5031277;28;20029;-73
2021/10/28 05:23:46;;;;;;;0.50;0.50;;;4.70;99.90;;;;;;5029918;28;20103;-74
2021/10/28 05:26:12;;;;;;;0.40;0.40;;;4.70;99.90;;;;;;5029934;28;20021;-71
2021/10/28 05:28:38;;;;;;;1.48;1.25;;;4.80;99.90;;;;;;5031432;28;20024;-72
2021/10/28 05:31:04;;;;;;;1.23;1.17;;;4.70;99.90;;;;;;5035442;28;20021;-71
2021/10/28 05:33:30;;;;;;;1.20;0.57;;;4.60;99.90;;;;;;5033584;28;20506;-71
2021/10/28 05:35:56;;;;;;;1.35;1.17;;;4.50;99.90;;;;;;5048328;28;20029;-71
2021/10/28 05:38:22;;;;;;;1.95;1.15;;;4.50;99.90;;;;;;5047267;28;20449;-72
2021/10/28 05:40:48;;;;;;;9.32;1.20;;;4.40;99.90;;;;;;5031106;28;20064;-72
2021/10/28 05:43:14;;;;;;;0.40;0.40;;;4.40;99.90;;;;;;5031061;28;20022;-72
2021/10/28 05:45:40;;;;;;;0.45;0.45;;;4.40;99.90;;;;;;5030753;28;20041;-72
2021/10/28 05:48:06;;;;;;;0.47;0.47;;;4.40;99.90;;;;;;5031027;28;20025;-73
2021/10/28 05:50:32;;;;;;;0.30;0.30;;;4.40;99.90;;;;;;5031699;28;20086;-73
2021/10/28 05:53:00;;;;;;;0.55;0.55;;;4.40;99.90;;;;;;5034530;28;20025;-73
2021/10/28 05:55:26;;;;;;;0.40;0.40;;;4.40;99.90;;;;;;5034451;28;20037;-73
2021/10/28 05:57:53;;;;;;;0.40;0.40;;;4.40;99.90;;;;;;5034785;28;20021;-73
2021/10/28 06:00:21;;;;;;;0.40;0.40;;;4.40;99.90;;;;;;5034318;28;20029;-73
2021/10/28 06:02:47;;;;;;;0.30;0.30;;;4.30;99.90;;;;;;5016539;28;20171;-73
2021/10/28 06:05:13;;;;;;;0.93;0.93;;;4.30;99.90;;;;;;5034361;28;20097;-73
2021/10/28 06:07:40;;;;;;;0.88;0.85;;;4.30;99.90;;;;;;5034621;28;20529;-73
2021/10/28 06:10:07;;;;;;;0.30;0.30;;;4.20;99.90;;;;;;5034179;28;20039;-73
2021/10/28 06:12:38;;;;;;;0.40;0.40;;;4.40;99.90;;;;;;5033070;28;20014;-73
2021/10/28 06:15:06;;;;;;;2.83;2.63;;;4.40;99.90;;;;;;5033988;28;20147;-73
2021/10/28 06:17:46;;;;;;;0.40;0.40;;;4.40;99.90;;;;;;5032837;28;20079;-73
2021/10/28 06:20:12;;;;;;;0.95;0.95;;;4.40;99.90;;;;;;5032805;28;20453;-73
2021/10/28 06:22:38;;;;;;;0.45;0.45;;;4.40;99.90;;;;;;5032582;28;20026;-73
2021/10/28 06:25:04;;;;;;;3.03;1.17;;;4.50;99.90;;;;;;5033885;28;20426;-73
2021/10/28 06:27:29;;;;;;;0.60;0.60;;;4.40;99.90;;;;;;5032956;28;20029;-73
2021/10/28 06:29:55;;;;;;;0.60;0.60;;;4.40;99.90;;;;;;5033823;28;20367;-73
2021/10/28 06:32:21;;;;;;;0.60;0.60;;;4.40;99.90;;;;;;5032789;28;20026;-73
2021/10/28 06:34:49;;;;;;;0.30;0.30;;;4.30;99.90;;;;;;5033701;28;20503;-73
2021/10/28 06:37:16;;;;;;;0.40;0.40;;;4.40;99.90;;;;;;5033709;28;20036;-73
2021/10/28 06:51:27;;;;;;;0.32;0.32;;;4.60;99.90;;;;;;5068940;27;20914;-74
2021/10/28 06:54:09;;;;;;;0.40;0.40;;;4.70;99.90;;;;;;5070652;28;20032;-74
2021/10/28 07:04:29;;;;;;;0.32;0.32;;;5.40;99.90;;;;;;5048661;28;20033;-72
2021/10/28 07:06:55;;;;;;;0.40;0.40;;;5.60;99.90;;;;;;5048728;28;20075;-72
2021/10/28 07:09:29;;;;;;;0.25;0.25;;;5.90;99.90;;;;;;5048355;28;20391;-72
2021/10/28 07:12:37;;;;;;;0.30;0.30;;;6.00;99.90;;;;;;5048812;28;20442;-72
2021/10/28 07:14:51;;;;;;;0.40;0.40;;;6.10;99.90;;;;;;5048091;28;20051;-72
2021/10/28 07:17:27;;;;;;;0.47;0.40;;;6.30;99.90;;;;;;5047121;28;20037;-72
2021/10/28 07:28:12;;;;;;;0.30;0.30;;;6.30;99.90;;;;;;5048010;28;20053;-72
2021/10/28 07:30:48;;;;;;;0.30;0.30;;;6.40;99.90;;;;;;5046722;28;20029;-73
2021/10/28 07:36:19;;;;;;;0.30;0.30;;;6.70;99.90;;;;;;5047736;28;20024;-73
2021/10/28 08:19:50;;;;;;;0.20;0.20;;;8.40;99.90;;;;;;5032833;28;20032;-73
2021/10/28 08:22:22;;;;;;;0.30;0.30;;;8.50;99.90;;;;;;5034163;28;20036;-72
2021/10/28 08:30:24;;;;;;;0.20;0.20;;;8.90;99.90;;;;;;5032448;28;20032;-73
2021/10/28 08:32:50;;;;;;;0.30;0.30;;;9.10;99.90;;;;;;5033878;28;20116;-73
2021/10/28 08:35:16;;;;;;;0.30;0.30;;;9.20;99.90;;;;;;5033631;28;20452;-73
2021/10/28 08:37:50;;;;;;;0.20;0.20;;;9.30;99.90;;;;;;5033844;28;20018;-73
2021/10/28 08:40:17;;;;;;;0.28;0.28;;;9.50;99.90;;;;;;5032589;28;20253;-73
2021/10/28 08:42:44;;;;;;;0.20;0.20;;;9.60;99.90;;;;;;5032247;28;20503;-73
2021/10/28 08:45:13;;;;;;;0.35;0.35;;;9.80;99.90;;;;;;5033533;28;20025;-73
2021/10/28 08:47:46;;;;;;;0.30;0.30;;;9.90;99.90;;;;;;5032602;28;20029;-73
2021/10/28 08:50:20;;;;;;;0.20;0.20;;;10.00;99.90;;;;;;5033298;28;20064;-73
2021/10/28 08:55:35;;;;;;;0.20;0.20;;;10.20;99.90;;;;;;5033277;28;20030;-73
2021/10/28 09:26:52;;;;;;;0.20;0.20;;;12.30;99.90;;;;;;5032751;28;20100;-73
2021/10/28 09:43:55;;;;;;;0.20;0.20;;;15.70;90.90;;;;;;5012910;28;20033;-73
2021/10/28 09:51:39;;;;;;;0.10;0.10;;;17.60;79.90;;;;;;5032375;28;20038;-73
2021/10/28 09:59:33;;;;;;;0.10;0.10;;;18.70;74.70;;;;;;5032309;28;20086;-73
2021/10/28 10:02:10;;;;;;;0.10;0.10;;;19.00;73.50;;;;;;5032154;28;20053;-73
2021/10/28 10:04:40;;;;;;;0.20;0.20;;;19.20;71.90;;;;;;5030776;28;20029;-73
2021/10/28 10:07:08;;;;;;;0.10;0.10;;;19.20;70.80;;;;;;5031039;28;20109;-73
2021/10/28 10:09:38;;;;;;;0.05;0.05;;;19.60;69.30;;;;;;5031972;28;20030;-73
2021/10/28 10:12:05;;;;;;;0.10;0.10;;;19.80;67.20;;;;;;5032075;28;20090;-73
2021/10/28 10:14:35;;;;;;;0.25;0.17;;;20.00;66.60;;;;;;5032380;28;20100;-74
2021/10/28 10:17:02;;;;;;;0.20;0.20;;;20.40;64.20;;;;;;5031177;28;20458;-74
2021/10/28 10:19:34;;;;;;;1.40;0.82;;;20.80;61.80;;;;;;5031735;28;20025;-74
2021/10/28 10:22:16;;;;;;;0.10;0.10;;;20.80;60.60;;;;;;5032140;28;20033;-74
2021/10/28 11:20:45;;;;;;;0.05;0.05;;;24.90;49.50;;;;;;5031430;28;20066;-73
2021/10/28 12:16:21;;;;;;;0.17;0.17;;;25.60;41.70;;;;;;5033806;28;20064;-73
2021/10/28 12:22:05;;;;;;;0.10;0.10;;;25.30;41.20;;;;;;5034157;28;20104;-73
2021/10/28 12:44:22;;;;;;;0.55;0.38;;;26.00;40.80;;;;;;5033845;28;20445;-73
2021/10/28 13:06:24;;;;;;;0.47;0.30;;;24.50;43.10;;;;;;5033350;28;20400;-73
2021/10/28 13:35:01;;;;;;;0.10;0.10;;;20.40;54.60;;;;;;5032871;28;20040;-73
2021/10/28 13:49:54;;;;;;;0.10;0.10;;;20.00;57.20;;;;;;5032739;28;20032;-73
2021/10/28 13:57:55;;;;;;;0.85;0.57;;;19.40;57.30;;;;;;5032681;28;20524;-73
2021/10/28 14:30:22;;;;;;;0.10;0.10;;;17.40;62.20;;;;;;5030487;28;20485;-72
2021/10/28 14:33:10;;;;;;;0.30;0.30;;;17.20;62.90;;;;;;5030434;28;20040;-72
2021/10/28 15:32:54;;;;;;;0.10;0.10;;;15.80;67.10;;;;;;5034682;28;20465;-72
2021/10/28 15:35:31;;;;;;;0.10;0.10;;;15.80;67.60;;;;;;5033096;28;20037;-72
2021/10/28 15:43:33;;;;;;;0.10;0.10;;;15.60;68.10;;;;;;5034970;28;20030;-72
2021/10/28 16:23:17;;;;;;;0.20;0.20;;;14.40;73.40;;;;;;5033638;28;20503;-72
2021/10/28 16:25:45;;;;;;;0.10;0.10;;;14.00;75.00;;;;;;5034105;28;20026;-72
2021/10/28 16:28:15;;;;;;;0.10;0.10;;;13.70;76.00;;;;;;5032822;28;20018;-72
2021/10/28 16:30:42;;;;;;;0.90;0.90;;;13.70;76.90;;;;;;5034399;28;20379;-72
2021/10/28 16:33:08;;;;;;;0.13;0.13;;;13.70;77.70;;;;;;5033996;28;20089;-72
2021/10/28 16:35:33;;;;;;;0.20;0.20;;;13.70;77.30;;;;;;5033833;28;20091;-72
2021/10/28 16:38:00;;;;;;;0.20;0.20;;;13.60;77.50;;;;;;5033939;28;20033;-72
2021/10/28 16:40:26;;;;;;;0.28;0.28;;;13.40;78.20;;;;;;5033918;28;20025;-72
2021/10/28 16:42:51;;;;;;;0.20;0.20;;;13.40;78.60;;;;;;5034075;28;20585;-72
2021/10/28 16:45:17;;;;;;;0.10;0.10;;;13.40;79.50;;;;;;5033827;28;20363;-72
2021/10/28 16:47:43;;;;;;;0.98;0.98;;;13.70;79.40;;;;;;5033818;28;20056;-72
2021/10/28 16:50:09;;;;;;;0.20;0.20;;;13.60;79.20;;;;;;5033820;28;20071;-72
2021/10/28 16:52:35;;;;;;;0.20;0.20;;;13.30;78.80;;;;;;5034020;28;20442;-71
2021/10/28 16:55:01;;;;;;;0.20;0.20;;;13.20;80.70;;;;;;5033631;28;20147;-72
2021/10/28 16:57:27;;;;;;;0.20;0.20;;;13.10;81.40;;;;;;5032765;28;20487;-72
2021/10/28 16:59:53;;;;;;;0.20;0.20;;;13.00;80.90;;;;;;5033512;28;20161;-72
2021/10/28 17:02:18;;;;;;;0.43;0.43;;;12.80;81.40;;;;;;5033552;28;20159;-72
2021/10/28 17:04:46;;;;;;;0.43;0.43;;;12.70;81.90;;;;;;5033411;28;20029;-72
2021/10/28 17:07:12;;;;;;;0.10;0.10;;;12.40;82.90;;;;;;5033346;28;20465;-72
2021/10/28 17:09:37;;;;;;;0.47;0.43;;;12.20;83.70;;;;;;5033404;28;20022;-72
2021/10/28 17:12:03;;;;;;;0.20;0.20;;;12.20;84.50;;;;;;5031920;28;20021;-72
2021/10/28 17:14:29;;;;;;;0.32;0.32;;;12.20;84.00;;;;;;5033437;28;20021;-72
2021/10/28 17:16:55;;;;;;;0.20;0.20;;;12.10;83.70;;;;;;5033293;28;20060;-72
2021/10/28 17:19:21;;;;;;;0.20;0.20;;;12.00;84.50;;;;;;5033164;28;20021;-72
2021/10/28 17:21:48;;;;;;;0.40;0.40;;;12.00;84.30;;;;;;5033026;28;20121;-72
2021/10/28 17:24:31;;;;;;;0.20;0.20;;;12.00;84.10;;;;;;5033074;28;20023;-72
2021/10/28 17:26:57;;;;;;;0.20;0.20;;;11.90;85.10;;;;;;5033097;28;20021;-72
2021/10/28 17:29:23;;;;;;;0.20;0.20;;;11.90;84.60;;;;;;5032956;28;20112;-72
2021/10/28 17:31:51;;;;;;;0.30;0.30;;;11.90;85.40;;;;;;5032946;28;20053;-72
2021/10/28 17:34:18;;;;;;;0.35;0.35;;;11.90;85.30;;;;;;5031806;28;20049;-72
2021/10/28 17:36:48;;;;;;;0.20;0.20;;;11.80;83.70;;;;;;5032715;28;20068;-72
2021/10/28 17:39:14;;;;;;;0.20;0.20;;;11.40;84.00;;;;;;5032835;28;20026;-72
2021/10/28 17:41:40;;;;;;;1.95;1.85;;;11.20;86.00;;;;;;5032738;28;20044;-72
2021/10/28 17:44:07;;;;;;;0.25;0.25;;;11.30;87.30;;;;;;5032778;28;20022;-72
2021/10/28 17:46:33;;;;;;;0.22;0.22;;;11.30;87.10;;;;;;5031206;28;20033;-76
2021/10/28 17:48:58;;;;;;;0.40;0.40;;;11.00;86.80;;;;;;5032705;28;20026;-73
2021/10/28 17:51:24;;;;;;;0.85;0.60;;;10.50;87.30;;;;;;5031208;28;20033;-72
2021/10/28 17:53:50;;;;;;;5.95;0.90;;;10.10;90.00;;;;;;5032712;28;20032;-72
2021/10/28 17:56:17;;;;;;;0.40;0.40;;;9.90;90.40;;;;;;5032462;28;20025;-71
2021/10/28 17:58:44;;;;;;;0.30;0.30;;;9.60;90.50;;;;;;5035385;28;20390;-71
2021/10/28 18:01:11;;;;;;;1.02;0.50;;;9.70;92.00;;;;;;5060258;28;20496;-72
2021/10/28 18:03:37;;;;;;;0.20;0.20;;;9.80;91.30;;;;;;5066734;28;20032;-72
2021/10/28 18:06:03;;;;;;;0.38;0.38;;;9.90;91.70;;;;;;5072048;28;20025;-71
2021/10/28 18:08:28;;;;;;;0.52;0.52;;;10.20;92.40;;;;;;5052677;28;20435;-72
2021/10/28 18:10:54;;;;;;;4.82;1.77;;;10.40;92.90;;;;;;5052182;28;20063;-72
2021/10/28 18:13:21;;;;;;;2.28;0.73;;;10.30;92.80;;;;;;5051695;28;20025;-71
2021/10/28 18:15:47;;;;;;;0.55;0.55;;;10.20;93.10;;;;;;5061113;28;20032;-71
2021/10/28 18:18:13;;;;;;;0.28;0.28;;;10.20;94.00;;;;;;5070679;28;20020;-72
2021/10/28 18:20:39;;;;;;;0.20;0.20;;;10.00;94.40;;;;;;5071953;28;20043;-72
2021/10/28 18:23:06;;;;;;;0.40;0.40;;;10.10;95.40;;;;;;5071819;28;20435;-71
2021/10/28 18:25:33;;;;;;;0.20;0.20;;;10.20;96.20;;;;;;5061147;28;20024;-72
2021/10/28 18:28:00;;;;;;;0.60;0.60;;;10.30;95.70;;;;;;5050748;28;20025;-72
2021/10/28 18:30:36;;;;;;;1.05;0.90;;;10.20;94.10;;;;;;5051819;28;20071;-72
2021/10/28 18:33:02;;;;;;;0.30;0.30;;;9.90;93.50;;;;;;5051838;28;20467;-71
2021/10/28 18:35:29;;;;;;;0.30;0.30;;;9.70;96.40;;;;;;5050459;28;20318;-71
2021/10/28 18:37:55;;;;;;;0.63;0.63;;;9.70;97.20;;;;;;5051812;28;20033;-72
2021/10/28 18:40:21;;;;;;;0.20;0.20;;;9.80;96.60;;;;;;5050431;28;20033;-72
2021/10/28 18:42:49;;;;;;;2.85;2.55;;;9.80;96.80;;;;;;5051777;28;20499;-72
2021/10/28 18:45:15;;;;;;;1.25;1.25;;;9.90;98.00;;;;;;5051444;28;20017;-71
2021/10/28 18:47:41;;;;;;;0.20;0.20;;;9.90;98.10;;;;;;5051659;28;20017;-72
2021/10/28 18:50:07;;;;;;;0.50;0.50;;;9.80;95.40;;;;;;5051418;28;20048;-72
2021/10/28 18:52:34;;;;;;;2.47;2.38;;;9.80;98.90;;;;;;5051524;28;20104;-72
2021/10/28 18:55:01;;;;;;;1.35;1.25;;;9.70;99.90;;;;;;5051441;28;20108;-72
2021/10/28 18:57:27;;;;;;;0.77;0.77;;;9.80;99.90;;;;;;5051717;28;20050;-72
2021/10/28 18:59:54;;;;;;;0.50;0.50;;;9.70;99.90;;;;;;5050055;28;20032;-72
2021/10/28 19:02:19;;;;;;;1.50;1.40;;;9.80;99.90;;;;;;5051497;28;20408;-71
2021/10/28 19:04:45;;;;;;;0.20;0.20;;;9.70;99.90;;;;;;5051483;28;20025;-72
2021/10/28 19:07:12;;;;;;;1.10;1.00;;;9.70;99.90;;;;;;5051548;28;20029;-72
2021/10/28 19:09:38;;;;;;;0.50;0.50;;;9.90;99.90;;;;;;5051573;28;20032;-72
2021/10/28 19:12:04;;;;;;;1.20;1.20;;;9.90;99.90;;;;;;5051486;28;20021;-72
2021/10/28 19:14:30;;;;;;;0.20;0.20;;;9.70;99.90;;;;;;5051288;28;20071;-71
2021/10/28 19:16:56;;;;;;;0.30;0.30;;;9.60;99.90;;;;;;5051454;28;20032;-71
2021/10/28 19:19:22;;;;;;;0.30;0.30;;;9.80;99.90;;;;;;5051216;28;20017;-72
2021/10/28 19:21:48;;;;;;;0.55;0.55;;;10.00;99.90;;;;;;5051381;28;20025;-71
2021/10/28 19:24:14;;;;;;;0.75;0.75;;;9.90;99.90;;;;;;5051588;28;20095;-72
2021/10/28 19:26:40;;;;;;;0.13;0.13;;;9.80;99.90;;;;;;5051264;28;20025;-72
2021/10/28 19:29:08;;;;;;;0.40;0.40;;;9.70;99.90;;;;;;5051185;28;20021;-71
2021/10/28 19:31:37;;;;;;;0.30;0.30;;;9.60;99.90;;;;;;5049931;28;20382;-71
2021/10/28 19:34:04;;;;;;;11.98;10.88;;;9.60;99.90;;;;;;5051435;28;20035;-72
2021/10/28 19:36:35;;;;;;;0.20;0.20;;;9.80;99.90;;;;;;5051388;28;20057;-72
2021/10/28 19:42:10;;;;;;;0.60;0.60;;;9.70;99.90;;;;;;5050384;28;20320;-72
2021/10/28 19:47:20;;;;;;;0.22;0.22;;;9.40;99.90;;;;;;5051207;28;20033;-71
2021/10/28 19:49:47;;;;;;;0.20;0.20;;;9.40;99.90;;;;;;5045057;28;20030;-71
2021/10/28 19:52:15;;;;;;;0.20;0.20;;;9.50;99.90;;;;;;5057594;28;20475;-72
2021/10/28 19:54:42;;;;;;;0.30;0.30;;;9.60;99.90;;;;;;5065813;28;20021;-72
2021/10/28 19:57:15;;;;;;;0.38;0.38;;;9.50;99.90;;;;;;5071384;28;20025;-71
2021/10/28 19:59:48;;;;;;;0.30;0.30;;;9.60;99.90;;;;;;5054597;28;20108;-72
2021/10/28 20:02:22;;;;;;;0.28;0.28;;;9.50;99.90;;;;;;5054690;28;20017;-72
2021/10/28 20:05:07;;;;;;;0.20;0.20;;;9.50;99.90;;;;;;5054556;28;20025;-72
2021/10/28 20:13:16;;;;;;;0.20;0.20;;;9.20;99.90;;;;;;5074281;28;20039;-72
2021/10/28 20:21:05;;;;;;;0.30;0.30;;;9.00;99.90;;;;;;5054240;28;20056;-71
2021/10/28 20:23:31;;;;;;;2.38;0.90;;;8.90;99.90;;;;;;5053866;28;20025;-72
2021/10/28 20:25:57;;;;;;;0.30;0.30;;;9.00;99.90;;;;;;5054189;28;20029;-72
2021/10/28 20:28:23;;;;;;;0.30;0.30;;;9.00;99.90;;;;;;5054179;28;20075;-71
2021/10/28 20:30:55;;;;;;;0.30;0.30;;;8.90;99.90;;;;;;5054222;28;20527;-72
2021/10/28 20:33:22;;;;;;;0.25;0.25;;;8.80;99.90;;;;;;5054108;28;20029;-71
2021/10/28 20:38:18;;;;;;;0.30;0.30;;;8.70;99.90;;;;;;5053928;28;20073;-71
2021/10/28 20:40:45;;;;;;;0.20;0.20;;;8.80;99.90;;;;;;5053964;28;20515;-71
2021/10/28 20:43:12;;;;;;;0.20;0.20;;;8.90;99.90;;;;;;5053950;28;20032;-72
2021/10/28 20:45:37;;;;;;;0.20;0.20;;;9.00;99.90;;;;;;5052318;28;20052;-72
2021/10/28 20:48:03;;;;;;;0.20;0.20;;;8.90;99.90;;;;;;5053690;28;20021;-72
2021/10/28 20:50:30;;;;;;;0.20;0.20;;;8.80;99.90;;;;;;5053584;28;20575;-72
2021/10/28 20:52:56;;;;;;;0.30;0.30;;;8.60;99.90;;;;;;5052537;28;20083;-72
2021/10/28 20:55:22;;;;;;;0.20;0.20;;;8.60;99.90;;;;;;5053594;28;20032;-71
2021/10/28 20:57:49;;;;;;;0.30;0.30;;;8.60;99.90;;;;;;5053564;28;20036;-71
2021/10/28 21:00:20;;;;;;;0.30;0.30;;;8.50;99.90;;;;;;5053579;28;20025;-72
2021/10/28 21:02:46;;;;;;;0.20;0.20;;;8.40;99.90;;;;;;5053667;28;20024;-71
2021/10/28 21:05:18;;;;;;;0.20;0.20;;;8.50;99.90;;;;;;5053420;28;20025;-72
2021/10/28 21:07:43;;;;;;;0.20;0.20;;;8.60;99.90;;;;;;5053497;28;20465;-72
2021/10/28 21:10:17;;;;;;;0.20;0.20;;;8.70;99.90;;;;;;5053675;28;20052;-72
2021/10/28 21:12:43;;;;;;;0.20;0.20;;;8.80;99.90;;;;;;5053394;28;20039;-72
2021/10/28 21:15:11;;;;;;;0.30;0.30;;;8.70;99.90;;;;;;5053218;28;20029;-71
2021/10/28 21:17:37;;;;;;;0.30;0.30;;;8.80;99.90;;;;;;5052003;28;20362;-71
2021/10/28 21:20:07;;;;;;;1.20;1.13;;;8.80;99.90;;;;;;5053114;28;20053;-71
2021/10/28 21:22:34;;;;;;;0.22;0.22;;;8.70;99.90;;;;;;5053223;28;20028;-71
2021/10/28 21:25:00;;;;;;;0.22;0.22;;;8.70;99.90;;;;;;5051668;28;20112;-72
2021/10/28 21:27:26;;;;;;;0.25;0.25;;;8.90;99.90;;;;;;5053058;28;20442;-71
2021/10/28 21:29:51;;;;;;;0.20;0.20;;;8.90;99.90;;;;;;5053032;28;20498;-72
2021/10/28 21:32:18;;;;;;;0.30;0.30;;;8.80;99.90;;;;;;5052892;28;20465;-71
2021/10/28 21:34:45;;;;;;;0.30;0.30;;;8.60;99.90;;;;;;5052786;28;20551;-71
2021/10/28 21:37:14;;;;;;;0.77;0.77;;;8.60;99.90;;;;;;5052838;28;20531;-72
2021/10/28 21:39:40;;;;;;;0.20;0.20;;;8.40;99.90;;;;;;5052662;28;20423;-71
2021/10/28 21:42:08;;;;;;;0.20;0.20;;;8.40;99.90;;;;;;5052832;28;20025;-72
2021/10/28 21:44:35;;;;;;;0.30;0.30;;;8.40;99.90;;;;;;5052627;28;20021;-72
2021/10/28 21:47:01;;;;;;;0.20;0.20;;;8.20;99.90;;;;;;5052710;28;20412;-71
2021/10/28 21:52:09;;;;;;;0.20;0.20;;;8.00;99.90;;;;;;5011406;28;20078;-72
2021/10/28 21:54:45;;;;;;;0.30;0.30;;;8.00;99.90;;;;;;5012852;28;20381;-71
2021/10/28 21:57:30;;;;;;;0.40;0.40;;;8.00;99.90;;;;;;5012975;28;20022;-72
2021/10/28 22:05:34;;;;;;;0.30;0.30;;;7.90;99.90;;;;;;5012647;28;20054;-72
2021/10/28 22:27:08;;;;;;;0.20;0.20;;;8.00;99.90;;;;;;5012364;28;20496;-71
2021/10/28 22:29:34;;;;;;;0.20;0.20;;;8.10;99.90;;;;;;5012213;28;20034;-72
2021/10/28 22:32:01;;;;;;;0.30;0.30;;;8.40;99.90;;;;;;5011156;28;20335;-71
2021/10/28 22:34:26;;;;;;;0.30;0.30;;;8.40;99.90;;;;;;5010984;28;20401;-72